createdAt,value
2017-08-21T00:00:24.698Z,0
2017-08-21T00:01:26.320Z,0
2017-08-21T00:02:27.935Z,0
2017-08-21T00:03:29.549Z,0
2017-08-21T00:04:31.163Z,0
2017-08-21T00:05:32.782Z,0
2017-08-21T00:06:34.396Z,0
2017-08-21T00:07:36.010Z,0
2017-08-21T00:08:37.625Z,0
2017-08-21T00:09:39.242Z,0
2017-08-21T00:10:40.865Z,0
2017-08-21T00:11:42.476Z,0
2017-08-21T00:12:44.091Z,0
2017-08-21T00:13:45.718Z,0
2017-08-21T00:14:47.327Z,0
2017-08-21T00:15:48.942Z,0
2017-08-21T00:16:50.562Z,0
2017-08-21T00:17:52.177Z,0
2017-08-21T00:18:53.794Z,0
2017-08-21T00:19:55.406Z,0
2017-08-21T00:20:57.022Z,0
2017-08-21T00:21:58.660Z,0
2017-08-21T00:23:00.256Z,0
2017-08-21T00:24:01.871Z,0
2017-08-21T00:25:03.496Z,0
2017-08-21T00:26:05.102Z,0
2017-08-21T00:27:06.715Z,0
2017-08-21T00:28:08.333Z,0
2017-08-21T00:29:09.950Z,0
2017-08-21T00:30:11.562Z,0
2017-08-21T00:31:13.179Z,0
2017-08-21T00:32:14.800Z,0
2017-08-21T00:33:16.417Z,0
2017-08-21T00:34:18.029Z,0
2017-08-21T00:35:19.643Z,0
2017-08-21T00:36:21.261Z,0
2017-08-21T00:37:22.880Z,0
2017-08-21T00:38:24.497Z,0
2017-08-21T00:39:26.117Z,0
2017-08-21T00:40:27.728Z,0
2017-08-21T00:41:29.347Z,0
2017-08-21T00:42:30.958Z,0
2017-08-21T00:43:32.574Z,0
2017-08-21T00:44:34.193Z,0
2017-08-21T00:45:35.813Z,0
2017-08-21T00:46:37.425Z,0
2017-08-21T00:47:39.038Z,0
2017-08-21T00:48:40.658Z,0
2017-08-21T00:49:42.270Z,0
2017-08-21T00:50:43.891Z,0
2017-08-21T00:51:45.509Z,0
2017-08-21T00:52:47.122Z,0
2017-08-21T00:53:48.740Z,0
2017-08-21T00:54:50.362Z,0
2017-08-21T00:55:51.975Z,0
2017-08-21T00:56:53.586Z,0
2017-08-21T00:57:55.228Z,0
2017-08-21T00:58:56.826Z,0
2017-08-21T00:59:58.438Z,0
2017-08-21T01:01:00.062Z,0
2017-08-21T01:02:01.679Z,0
2017-08-21T01:03:03.288Z,0
2017-08-21T01:04:04.900Z,0
2017-08-21T01:05:06.519Z,0
2017-08-21T01:06:08.138Z,0
2017-08-21T01:07:09.751Z,0
2017-08-21T01:08:11.366Z,0
2017-08-21T01:09:12.983Z,0
2017-08-21T01:10:14.601Z,0
2017-08-21T01:11:16.212Z,0
2017-08-21T01:12:17.827Z,0
2017-08-21T01:13:19.445Z,0
2017-08-21T01:14:21.065Z,0
2017-08-21T01:15:22.681Z,0
2017-08-21T01:16:24.297Z,0
2017-08-21T01:17:25.916Z,0
2017-08-21T01:18:27.524Z,0
2017-08-21T01:19:29.143Z,0
2017-08-21T01:20:30.762Z,0
2017-08-21T01:21:32.377Z,0
2017-08-21T01:22:33.998Z,0
2017-08-21T01:23:35.609Z,0
2017-08-21T01:24:37.221Z,0
2017-08-21T01:25:38.839Z,0
2017-08-21T01:26:40.458Z,0
2017-08-21T01:27:42.084Z,0
2017-08-21T01:28:43.684Z,0
2017-08-21T01:29:45.303Z,0
2017-08-21T01:30:46.921Z,0
2017-08-21T01:31:48.539Z,0
2017-08-21T01:32:50.150Z,0
2017-08-21T01:33:51.764Z,0
2017-08-21T01:34:53.407Z,0
2017-08-21T01:35:54.998Z,0
2017-08-21T01:36:56.613Z,0
2017-08-21T01:37:58.231Z,0
2017-08-21T01:38:59.848Z,0
2017-08-21T01:40:01.459Z,0
2017-08-21T01:41:03.071Z,0
2017-08-21T01:42:04.690Z,0
2017-08-21T01:43:06.303Z,0
2017-08-21T01:44:07.927Z,0
2017-08-21T01:45:09.541Z,0
2017-08-21T01:46:11.156Z,0
2017-08-21T01:47:12.766Z,0
2017-08-21T01:48:14.381Z,0
2017-08-21T01:49:16.002Z,0
2017-08-21T01:50:17.619Z,0
2017-08-21T01:51:19.234Z,0
2017-08-21T01:52:20.854Z,0
2017-08-21T01:53:22.468Z,0
2017-08-21T01:54:24.078Z,0
2017-08-21T01:55:25.700Z,0
2017-08-21T01:56:27.311Z,0
2017-08-21T01:57:28.925Z,0
2017-08-21T01:58:30.547Z,0
2017-08-21T01:59:32.159Z,0
2017-08-21T02:00:33.778Z,0
2017-08-21T02:01:35.393Z,0
2017-08-21T02:02:37.008Z,0
2017-08-21T02:03:38.621Z,0
2017-08-21T02:04:40.236Z,0
2017-08-21T02:05:41.858Z,0
2017-08-21T02:06:43.465Z,0
2017-08-21T02:07:45.078Z,0
2017-08-21T02:08:46.698Z,0
2017-08-21T02:09:48.314Z,0
2017-08-21T02:10:49.927Z,0
2017-08-21T02:11:51.543Z,0
2017-08-21T02:12:53.166Z,0
2017-08-21T02:13:54.779Z,0
2017-08-21T02:14:56.391Z,0
2017-08-21T02:15:58.007Z,0
2017-08-21T02:16:59.623Z,0
2017-08-21T02:18:01.237Z,0
2017-08-21T02:19:02.854Z,0
2017-08-21T02:20:04.474Z,0
2017-08-21T02:21:06.090Z,0
2017-08-21T02:22:07.699Z,0
2017-08-21T02:23:09.316Z,0
2017-08-21T02:24:10.933Z,0
2017-08-21T02:25:12.545Z,0
2017-08-21T02:26:14.162Z,0
2017-08-21T02:27:15.781Z,0
2017-08-21T02:28:17.390Z,0
2017-08-21T02:29:19.009Z,0
2017-08-21T02:30:20.622Z,0
2017-08-21T02:31:22.237Z,0
2017-08-21T02:32:23.856Z,0
2017-08-21T02:33:25.473Z,0
2017-08-21T02:34:27.087Z,0
2017-08-21T02:35:28.701Z,0
2017-08-21T02:36:30.309Z,0
2017-08-21T02:37:31.922Z,0
2017-08-21T02:38:33.540Z,0
2017-08-21T02:39:35.161Z,0
2017-08-21T02:40:36.771Z,0
2017-08-21T02:41:38.386Z,0
2017-08-21T02:42:40.008Z,0
2017-08-21T02:43:41.618Z,0
2017-08-21T02:44:43.228Z,0
2017-08-21T02:45:44.841Z,0
2017-08-21T02:46:46.461Z,0
2017-08-21T02:47:48.076Z,0
2017-08-21T02:48:49.691Z,0
2017-08-21T02:49:51.303Z,0
2017-08-21T02:50:52.926Z,0
2017-08-21T02:51:54.535Z,0
2017-08-21T02:52:56.153Z,0
2017-08-21T02:53:57.772Z,0
2017-08-21T02:54:59.382Z,0
2017-08-21T02:56:01.002Z,0
2017-08-21T02:57:02.616Z,0
2017-08-21T02:58:04.231Z,0
2017-08-21T02:59:05.840Z,0
2017-08-21T03:00:07.455Z,0
2017-08-21T03:01:09.070Z,0
2017-08-21T03:02:10.687Z,0
2017-08-21T03:03:12.308Z,0
2017-08-21T03:04:13.922Z,0
2017-08-21T03:05:15.534Z,0
2017-08-21T03:06:17.149Z,0
2017-08-21T03:07:18.769Z,0
2017-08-21T03:08:20.388Z,0
2017-08-21T03:09:22.007Z,0
2017-08-21T03:10:23.632Z,0
2017-08-21T03:11:25.237Z,0
2017-08-21T03:12:26.858Z,0
2017-08-21T03:13:28.475Z,0
2017-08-21T03:14:30.086Z,0
2017-08-21T03:15:31.703Z,0
2017-08-21T03:16:33.324Z,0
2017-08-21T03:17:34.944Z,0
2017-08-21T03:18:36.555Z,0
2017-08-21T03:19:38.172Z,0
2017-08-21T03:20:39.785Z,0
2017-08-21T03:21:41.397Z,0
2017-08-21T03:22:43.013Z,0
2017-08-21T03:23:44.634Z,0
2017-08-21T03:24:46.251Z,0
2017-08-21T03:25:47.869Z,0
2017-08-21T03:26:49.484Z,0
2017-08-21T03:27:51.093Z,0
2017-08-21T03:28:52.713Z,0
2017-08-21T03:29:54.331Z,0
2017-08-21T03:30:55.945Z,0
2017-08-21T03:31:57.561Z,0
2017-08-21T03:32:59.180Z,0
2017-08-21T03:34:00.791Z,0
2017-08-21T03:35:02.409Z,0
2017-08-21T03:36:04.026Z,0
2017-08-21T03:37:05.638Z,0
2017-08-21T03:38:07.265Z,0
2017-08-21T03:39:08.880Z,0
2017-08-21T03:40:10.489Z,0
2017-08-21T03:41:12.102Z,0
2017-08-21T03:42:13.714Z,0
2017-08-21T03:43:15.355Z,0
2017-08-21T03:44:16.946Z,0
2017-08-21T03:45:18.560Z,0
2017-08-21T03:46:20.182Z,0
2017-08-21T03:47:21.796Z,0
2017-08-21T03:48:23.413Z,0
2017-08-21T03:49:25.023Z,0
2017-08-21T03:50:26.637Z,0
2017-08-21T03:51:28.258Z,0
2017-08-21T03:52:29.876Z,0
2017-08-21T03:53:31.490Z,0
2017-08-21T03:54:33.108Z,0
2017-08-21T03:55:34.725Z,0
2017-08-21T03:56:36.336Z,0
2017-08-21T03:57:37.949Z,0
2017-08-21T03:58:39.564Z,0
2017-08-21T03:59:41.179Z,0
2017-08-21T04:00:42.795Z,0
2017-08-21T04:01:44.406Z,0
2017-08-21T04:02:46.024Z,0
2017-08-21T04:03:47.641Z,0
2017-08-21T04:04:49.258Z,0
2017-08-21T04:05:50.873Z,0
2017-08-21T04:06:52.498Z,0
2017-08-21T04:07:54.112Z,0
2017-08-21T04:08:55.725Z,0
2017-08-21T04:09:57.347Z,0
2017-08-21T04:10:58.957Z,0
2017-08-21T04:12:00.572Z,0
2017-08-21T04:13:02.195Z,0
2017-08-21T04:14:03.815Z,0
2017-08-21T04:15:05.438Z,0
2017-08-21T04:16:07.047Z,5
2017-08-21T04:17:08.662Z,5
2017-08-21T04:18:10.279Z,5
2017-08-21T04:19:11.900Z,5
2017-08-21T04:20:13.514Z,5
2017-08-21T04:21:15.133Z,5
2017-08-21T04:22:16.751Z,5
2017-08-21T04:23:18.370Z,11
2017-08-21T04:24:19.984Z,11
2017-08-21T04:25:21.600Z,11
2017-08-21T04:26:23.223Z,11
2017-08-21T04:27:24.839Z,11
2017-08-21T04:28:26.462Z,11
2017-08-21T04:29:28.084Z,11
2017-08-21T04:30:29.698Z,11
2017-08-21T04:31:31.317Z,16
2017-08-21T04:32:32.937Z,16
2017-08-21T04:33:34.558Z,16
2017-08-21T04:34:36.174Z,16
2017-08-21T04:35:37.792Z,22
2017-08-21T04:36:39.417Z,22
2017-08-21T04:37:41.035Z,22
2017-08-21T04:38:42.650Z,28
2017-08-21T04:39:44.270Z,28
2017-08-21T04:40:45.888Z,28
2017-08-21T04:41:47.504Z,33
2017-08-21T04:42:49.130Z,33
2017-08-21T04:43:50.746Z,33
2017-08-21T04:44:52.365Z,39
2017-08-21T04:45:53.985Z,39
2017-08-21T04:46:55.598Z,39
2017-08-21T04:47:57.220Z,45
2017-08-21T04:48:58.840Z,45
2017-08-21T04:50:00.456Z,45
2017-08-21T04:51:02.079Z,50
2017-08-21T04:52:03.695Z,50
2017-08-21T04:53:05.309Z,56
2017-08-21T04:54:06.927Z,56
2017-08-21T04:55:08.551Z,61
2017-08-21T04:56:10.171Z,61
2017-08-21T04:57:11.794Z,67
2017-08-21T04:58:13.410Z,67
2017-08-21T04:59:15.024Z,73
2017-08-21T05:00:16.647Z,73
2017-08-21T05:01:18.262Z,78
2017-08-21T05:02:19.880Z,78
2017-08-21T05:03:21.501Z,78
2017-08-21T05:04:23.119Z,84
2017-08-21T05:05:24.740Z,84
2017-08-21T05:06:26.361Z,84
2017-08-21T05:07:27.981Z,84
2017-08-21T05:08:29.597Z,84
2017-08-21T05:09:31.220Z,90
2017-08-21T05:10:32.844Z,90
2017-08-21T05:11:34.465Z,90
2017-08-21T05:12:36.090Z,90
2017-08-21T05:13:37.710Z,95
2017-08-21T05:14:39.328Z,95
2017-08-21T05:15:40.945Z,95
2017-08-21T05:16:42.568Z,95
2017-08-21T05:17:44.185Z,84
2017-08-21T05:18:45.804Z,90
2017-08-21T05:19:47.425Z,95
2017-08-21T05:20:49.045Z,101
2017-08-21T05:21:50.669Z,101
2017-08-21T05:22:52.290Z,101
2017-08-21T05:23:53.907Z,106
2017-08-21T05:24:55.529Z,112
2017-08-21T05:25:57.154Z,118
2017-08-21T05:26:58.782Z,118
2017-08-21T05:28:00.397Z,123
2017-08-21T05:29:02.016Z,123
2017-08-21T05:30:03.639Z,129
2017-08-21T05:31:05.264Z,129
2017-08-21T05:32:06.881Z,140
2017-08-21T05:33:08.511Z,146
2017-08-21T05:34:10.125Z,140
2017-08-21T05:35:11.744Z,140
2017-08-21T05:36:13.363Z,146
2017-08-21T05:37:14.979Z,123
2017-08-21T05:38:16.606Z,146
2017-08-21T05:39:18.232Z,151
2017-08-21T05:40:19.851Z,163
2017-08-21T05:41:21.470Z,163
2017-08-21T05:42:23.092Z,163
2017-08-21T05:43:24.712Z,168
2017-08-21T05:44:26.329Z,174
2017-08-21T05:45:27.966Z,180
2017-08-21T05:46:29.572Z,191
2017-08-21T05:47:31.192Z,202
2017-08-21T05:48:32.822Z,208
2017-08-21T05:49:34.434Z,213
2017-08-21T05:50:36.058Z,219
2017-08-21T05:51:37.681Z,191
2017-08-21T05:52:39.301Z,236
2017-08-21T05:53:40.930Z,253
2017-08-21T05:54:42.556Z,264
2017-08-21T05:55:44.181Z,281
2017-08-21T05:56:45.800Z,292
2017-08-21T05:57:47.416Z,298
2017-08-21T05:58:49.041Z,309
2017-08-21T05:59:50.660Z,320
2017-08-21T06:00:52.286Z,331
2017-08-21T06:01:53.911Z,348
2017-08-21T06:02:55.532Z,360
2017-08-21T06:03:57.712Z,371
2017-08-21T06:04:59.327Z,388
2017-08-21T06:06:00.941Z,399
2017-08-21T06:07:02.573Z,416
2017-08-21T06:08:04.190Z,421
2017-08-21T06:09:05.809Z,421
2017-08-21T06:10:07.460Z,416
2017-08-21T06:11:09.074Z,421
2017-08-21T06:12:10.696Z,421
2017-08-21T06:13:12.348Z,427
2017-08-21T06:14:13.943Z,433
2017-08-21T06:15:15.569Z,433
2017-08-21T06:16:17.194Z,438
2017-08-21T06:17:18.823Z,450
2017-08-21T06:18:20.441Z,506
2017-08-21T06:19:22.061Z,495
2017-08-21T06:20:23.684Z,517
2017-08-21T06:21:25.301Z,551
2017-08-21T06:22:26.927Z,585
2017-08-21T06:23:28.546Z,905
2017-08-21T06:24:30.166Z,765
2017-08-21T06:25:31.786Z,579
2017-08-21T06:26:33.412Z,933
2017-08-21T06:27:35.032Z,585
2017-08-21T06:28:36.658Z,703
2017-08-21T06:29:38.275Z,607
2017-08-21T06:30:39.897Z,703
2017-08-21T06:31:41.520Z,1248
2017-08-21T06:32:43.150Z,1293
2017-08-21T06:33:44.774Z,916
2017-08-21T06:34:46.400Z,849
2017-08-21T06:35:48.027Z,1192
2017-08-21T06:36:49.647Z,1012
2017-08-21T06:37:51.276Z,1406
2017-08-21T06:38:52.905Z,1164
2017-08-21T06:39:54.524Z,1468
2017-08-21T06:40:56.146Z,1434
2017-08-21T06:41:57.774Z,1395
2017-08-21T06:42:59.397Z,1440
2017-08-21T06:44:01.027Z,1440
2017-08-21T06:45:02.649Z,1428
2017-08-21T06:46:04.285Z,1378
2017-08-21T06:47:05.909Z,1355
2017-08-21T06:48:07.537Z,1411
2017-08-21T06:49:09.159Z,1411
2017-08-21T06:50:10.784Z,1406
2017-08-21T06:51:12.415Z,1411
2017-08-21T06:52:14.042Z,1406
2017-08-21T06:53:15.669Z,1423
2017-08-21T06:54:17.293Z,1400
2017-08-21T06:55:18.925Z,1417
2017-08-21T06:56:20.547Z,1395
2017-08-21T06:57:22.174Z,1406
2017-08-21T06:58:23.804Z,1440
2017-08-21T06:59:25.430Z,1451
2017-08-21T07:00:27.065Z,1456
2017-08-21T07:01:28.693Z,1479
2017-08-21T07:02:30.316Z,1473
2017-08-21T07:03:31.949Z,1456
2017-08-21T07:04:33.580Z,1462
2017-08-21T07:05:35.209Z,1479
2017-08-21T07:06:36.837Z,1501
2017-08-21T07:07:38.467Z,1490
2017-08-21T07:08:40.092Z,1501
2017-08-21T07:09:41.727Z,1513
2017-08-21T07:10:43.358Z,1530
2017-08-21T07:11:44.985Z,1586
2017-08-21T07:12:46.621Z,1676
2017-08-21T07:13:48.256Z,1710
2017-08-21T07:14:49.885Z,1721
2017-08-21T07:15:51.524Z,1760
2017-08-21T07:16:53.146Z,1861
2017-08-21T07:17:54.773Z,1935
2017-08-21T07:18:56.428Z,1951
2017-08-21T07:19:58.041Z,1906
2017-08-21T07:20:59.671Z,1861
2017-08-21T07:22:01.311Z,1861
2017-08-21T07:23:02.941Z,1873
2017-08-21T07:24:04.571Z,1890
2017-08-21T07:25:06.201Z,1861
2017-08-21T07:26:07.837Z,1811
2017-08-21T07:27:09.474Z,1839
2017-08-21T07:28:11.106Z,1878
2017-08-21T07:29:12.745Z,1901
2017-08-21T07:30:14.380Z,1878
2017-08-21T07:31:16.009Z,1856
2017-08-21T07:32:17.646Z,1850
2017-08-21T07:33:19.280Z,1856
2017-08-21T07:34:20.911Z,1867
2017-08-21T07:35:22.549Z,1963
2017-08-21T07:36:24.188Z,2317
2017-08-21T07:37:25.821Z,2638
2017-08-21T07:38:27.450Z,2806
2017-08-21T07:39:29.083Z,2925
2017-08-21T07:40:30.722Z,2896
2017-08-21T07:41:32.361Z,2891
2017-08-21T07:42:33.992Z,2885
2017-08-21T07:43:35.634Z,3071
2017-08-21T07:44:37.270Z,3217
2017-08-21T07:45:38.906Z,3166
2017-08-21T07:46:40.538Z,3161
2017-08-21T07:47:42.173Z,3206
2017-08-21T07:48:43.814Z,3240
2017-08-21T07:49:45.452Z,3245
2017-08-21T07:50:47.088Z,3465
2017-08-21T07:51:48.728Z,3543
2017-08-21T07:52:50.365Z,3605
2017-08-21T07:53:52.002Z,3673
2017-08-21T07:54:53.635Z,3836
2017-08-21T07:55:55.273Z,3881
2017-08-21T07:56:56.909Z,3870
2017-08-21T07:57:58.545Z,4134
2017-08-21T07:59:00.187Z,4145
2017-08-21T08:00:01.822Z,4061
2017-08-21T08:01:03.456Z,4083
2017-08-21T08:02:05.091Z,4021
2017-08-21T08:03:06.734Z,4196
2017-08-21T08:04:08.374Z,4173
2017-08-21T08:05:10.014Z,4190
2017-08-21T08:06:11.654Z,4190
2017-08-21T08:07:13.292Z,4083
2017-08-21T08:08:14.931Z,4117
2017-08-21T08:09:16.567Z,4140
2017-08-21T08:10:18.204Z,4201
2017-08-21T08:11:19.849Z,4235
2017-08-21T08:12:21.493Z,4190
2017-08-21T08:13:23.131Z,4224
2017-08-21T08:14:24.769Z,4275
2017-08-21T08:15:26.403Z,4162
2017-08-21T08:16:28.040Z,4179
2017-08-21T08:17:29.684Z,4100
2017-08-21T08:18:31.319Z,4151
2017-08-21T08:19:32.960Z,4106
2017-08-21T08:20:34.598Z,4179
2017-08-21T08:21:36.238Z,4314
2017-08-21T08:22:37.872Z,4342
2017-08-21T08:23:39.509Z,4297
2017-08-21T08:24:41.151Z,4336
2017-08-21T08:25:42.788Z,4393
2017-08-21T08:26:44.427Z,4269
2017-08-21T08:27:46.069Z,4275
2017-08-21T08:28:47.708Z,4325
2017-08-21T08:29:49.343Z,4393
2017-08-21T08:30:50.980Z,4505
2017-08-21T08:31:52.624Z,4393
2017-08-21T08:32:54.269Z,4556
2017-08-21T08:33:55.906Z,4719
2017-08-21T08:34:57.545Z,4668
2017-08-21T08:35:59.188Z,4764
2017-08-21T08:37:00.820Z,4747
2017-08-21T08:38:02.459Z,4606
2017-08-21T08:39:04.104Z,4595
2017-08-21T08:40:05.742Z,4584
2017-08-21T08:41:07.387Z,4466
2017-08-21T08:42:09.026Z,4561
2017-08-21T08:43:10.663Z,4629
2017-08-21T08:44:12.297Z,4618
2017-08-21T08:45:13.939Z,4730
2017-08-21T08:46:15.575Z,4820
2017-08-21T08:47:17.220Z,4972
2017-08-21T08:48:18.866Z,5056
2017-08-21T08:49:20.495Z,5079
2017-08-21T08:50:22.137Z,5068
2017-08-21T08:51:23.775Z,5079
2017-08-21T08:52:25.416Z,5006
2017-08-21T08:53:27.052Z,5096
2017-08-21T08:54:28.696Z,5124
2017-08-21T08:55:30.337Z,5163
2017-08-21T08:56:31.979Z,5073
2017-08-21T08:57:33.612Z,5073
2017-08-21T08:58:35.248Z,5090
2017-08-21T08:59:36.892Z,5338
2017-08-21T09:00:38.533Z,5355
2017-08-21T09:01:40.171Z,5366
2017-08-21T09:02:41.814Z,5388
2017-08-21T09:03:43.456Z,5388
2017-08-21T09:04:45.095Z,5349
2017-08-21T09:05:46.731Z,5265
2017-08-21T09:06:48.367Z,5321
2017-08-21T09:07:50.015Z,5310
2017-08-21T09:08:51.657Z,5197
2017-08-21T09:09:53.296Z,5028
2017-08-21T09:10:54.939Z,5006
2017-08-21T09:11:56.574Z,4989
2017-08-21T09:12:58.213Z,4905
2017-08-21T09:13:59.861Z,5090
2017-08-21T09:15:01.494Z,5163
2017-08-21T09:16:03.139Z,5141
2017-08-21T09:17:04.783Z,5113
2017-08-21T09:18:06.421Z,5096
2017-08-21T09:19:08.063Z,5141
2017-08-21T09:20:09.707Z,5068
2017-08-21T09:21:11.340Z,4995
2017-08-21T09:22:12.980Z,5034
2017-08-21T09:23:14.625Z,5096
2017-08-21T09:24:16.266Z,5175
2017-08-21T09:25:17.901Z,5130
2017-08-21T09:26:19.544Z,5141
2017-08-21T09:27:21.181Z,5220
2017-08-21T09:28:22.824Z,5220
2017-08-21T09:29:24.463Z,5135
2017-08-21T09:30:26.104Z,5180
2017-08-21T09:31:27.752Z,5023
2017-08-21T09:32:29.389Z,4888
2017-08-21T09:33:31.029Z,5085
2017-08-21T09:34:32.667Z,5175
2017-08-21T09:35:34.312Z,5096
2017-08-21T09:36:35.956Z,5304
2017-08-21T09:37:37.592Z,5495
2017-08-21T09:38:39.234Z,5445
2017-08-21T09:39:40.876Z,5433
2017-08-21T09:40:42.512Z,5439
2017-08-21T09:41:44.151Z,5416
2017-08-21T09:42:45.796Z,5400
2017-08-21T09:43:47.434Z,5439
2017-08-21T09:44:49.083Z,5371
2017-08-21T09:45:50.731Z,5383
2017-08-21T09:46:52.365Z,5490
2017-08-21T09:47:54.005Z,5546
2017-08-21T09:48:55.650Z,5518
2017-08-21T09:49:57.294Z,5641
2017-08-21T09:50:58.932Z,5709
2017-08-21T09:52:00.575Z,5748
2017-08-21T09:53:02.222Z,5608
2017-08-21T09:54:03.862Z,5315
2017-08-21T09:55:05.499Z,3656
2017-08-21T09:56:07.138Z,1845
2017-08-21T09:57:08.782Z,1726
2017-08-21T09:58:10.427Z,1704
2017-08-21T09:59:12.071Z,2593
2017-08-21T10:00:13.707Z,1485
2017-08-21T10:01:15.348Z,1445
2017-08-21T10:02:16.989Z,1445
2017-08-21T10:03:18.624Z,1586
2017-08-21T10:04:20.261Z,1575
2017-08-21T10:05:21.906Z,1631
2017-08-21T10:06:23.547Z,1670
2017-08-21T10:07:25.182Z,1676
2017-08-21T10:08:26.824Z,2160
2017-08-21T10:09:28.458Z,1822
2017-08-21T10:10:30.094Z,5152
2017-08-21T10:11:31.735Z,5433
2017-08-21T10:12:33.374Z,5242
2017-08-21T10:13:35.011Z,5197
2017-08-21T10:14:36.648Z,5371
2017-08-21T10:15:38.288Z,5253
2017-08-21T10:16:39.921Z,5203
2017-08-21T10:17:41.563Z,5332
2017-08-21T10:18:43.206Z,5416
2017-08-21T10:19:44.838Z,5563
2017-08-21T10:20:46.482Z,5580
2017-08-21T10:21:48.120Z,5523
2017-08-21T10:22:49.758Z,5461
2017-08-21T10:23:51.399Z,5411
2017-08-21T10:24:53.033Z,5523
2017-08-21T10:25:54.673Z,5568
2017-08-21T10:26:56.316Z,5490
2017-08-21T10:27:57.959Z,5501
2017-08-21T10:28:59.599Z,5512
2017-08-21T10:30:01.240Z,5568
2017-08-21T10:31:02.882Z,5456
2017-08-21T10:32:04.517Z,5439
2017-08-21T10:33:06.158Z,5456
2017-08-21T10:34:07.802Z,5433
2017-08-21T10:35:09.445Z,5709
2017-08-21T10:36:11.083Z,5855
2017-08-21T10:37:12.724Z,2407
2017-08-21T10:38:14.362Z,5720
2017-08-21T10:39:15.999Z,5793
2017-08-21T10:40:17.640Z,5400
2017-08-21T10:41:19.286Z,5051
2017-08-21T10:42:20.927Z,5416
2017-08-21T10:43:22.568Z,5675
2017-08-21T10:44:24.205Z,5754
2017-08-21T10:45:25.850Z,5731
2017-08-21T10:46:27.486Z,5670
2017-08-21T10:47:29.126Z,5580
2017-08-21T10:48:30.770Z,5636
2017-08-21T10:49:32.410Z,939
2017-08-21T10:50:34.052Z,916
2017-08-21T10:51:35.687Z,866
2017-08-21T10:52:37.333Z,888
2017-08-21T10:53:38.967Z,883
2017-08-21T10:54:40.606Z,894
2017-08-21T10:55:42.251Z,894
2017-08-21T10:56:43.894Z,900
2017-08-21T10:57:45.541Z,911
2017-08-21T10:58:47.180Z,922
2017-08-21T10:59:48.817Z,933
2017-08-21T11:00:50.460Z,888
2017-08-21T11:01:52.109Z,860
2017-08-21T11:02:53.741Z,528
2017-08-21T11:03:55.382Z,472
2017-08-21T11:04:57.030Z,618
2017-08-21T11:05:58.670Z,573
2017-08-21T11:07:00.307Z,478
2017-08-21T11:08:01.942Z,540
2017-08-21T11:09:03.595Z,956
2017-08-21T11:10:05.225Z,1012
2017-08-21T11:11:06.865Z,585
2017-08-21T11:12:08.509Z,635
2017-08-21T11:13:10.149Z,421
2017-08-21T11:14:11.782Z,399
2017-08-21T11:15:13.418Z,399
2017-08-21T11:16:15.061Z,444
2017-08-21T11:17:16.701Z,900
2017-08-21T11:18:18.342Z,635
2017-08-21T11:19:19.984Z,500
2017-08-21T11:20:21.635Z,911
2017-08-21T11:21:23.256Z,995
2017-08-21T11:22:24.896Z,984
2017-08-21T11:23:26.535Z,978
2017-08-21T11:24:28.168Z,995
2017-08-21T11:25:29.809Z,1018
2017-08-21T11:26:31.451Z,1029
2017-08-21T11:27:33.093Z,1046
2017-08-21T11:28:34.726Z,1040
2017-08-21T11:29:36.363Z,1023
2017-08-21T11:30:38.004Z,1035
2017-08-21T11:31:39.646Z,1012
2017-08-21T11:32:41.285Z,1006
2017-08-21T11:33:42.922Z,990
2017-08-21T11:34:44.563Z,961
2017-08-21T11:35:46.225Z,978
2017-08-21T11:36:47.835Z,984
2017-08-21T11:37:49.472Z,990
2017-08-21T11:38:51.114Z,978
2017-08-21T11:39:52.758Z,978
2017-08-21T11:40:54.394Z,967
2017-08-21T11:41:56.026Z,939
2017-08-21T11:42:57.668Z,939
2017-08-21T11:43:59.306Z,933
2017-08-21T11:45:00.940Z,928
2017-08-21T11:46:02.577Z,939
2017-08-21T11:47:04.214Z,939
2017-08-21T11:48:05.854Z,939
2017-08-21T11:49:07.492Z,905
2017-08-21T11:50:09.130Z,883
2017-08-21T11:51:10.762Z,838
2017-08-21T11:52:12.399Z,354
2017-08-21T11:53:14.041Z,360
2017-08-21T11:54:15.678Z,635
2017-08-21T11:55:17.315Z,838
2017-08-21T11:56:18.952Z,849
2017-08-21T11:57:20.591Z,826
2017-08-21T11:58:22.222Z,810
2017-08-21T11:59:23.863Z,793
2017-08-21T12:00:25.501Z,798
2017-08-21T12:01:27.135Z,798
2017-08-21T12:02:28.776Z,787
2017-08-21T12:03:30.406Z,776
2017-08-21T12:04:32.042Z,759
2017-08-21T12:05:33.683Z,748
2017-08-21T12:06:35.313Z,736
2017-08-21T12:07:36.952Z,714
2017-08-21T12:08:38.591Z,703
2017-08-21T12:09:40.230Z,691
2017-08-21T12:10:41.862Z,686
2017-08-21T12:11:43.523Z,680
2017-08-21T12:12:45.132Z,669
2017-08-21T12:13:46.764Z,652
2017-08-21T12:14:48.408Z,641
2017-08-21T12:15:50.038Z,641
2017-08-21T12:16:51.676Z,635
2017-08-21T12:17:53.313Z,635
2017-08-21T12:18:54.950Z,618
2017-08-21T12:19:56.582Z,607
2017-08-21T12:20:58.215Z,596
2017-08-21T12:21:59.854Z,585
2017-08-21T12:23:01.495Z,562
2017-08-21T12:24:03.130Z,556
2017-08-21T12:25:04.766Z,551
2017-08-21T12:26:06.401Z,545
2017-08-21T12:27:08.031Z,534
2017-08-21T12:28:09.683Z,511
2017-08-21T12:29:11.305Z,495
2017-08-21T12:30:12.946Z,489
2017-08-21T12:31:14.585Z,478
2017-08-21T12:32:16.212Z,461
2017-08-21T12:33:17.847Z,466
2017-08-21T12:34:19.483Z,455
2017-08-21T12:35:21.120Z,444
2017-08-21T12:36:22.756Z,438
2017-08-21T12:37:24.393Z,438
2017-08-21T12:38:26.029Z,427
2017-08-21T12:39:27.659Z,427
2017-08-21T12:40:29.297Z,427
2017-08-21T12:41:30.926Z,427
2017-08-21T12:42:32.561Z,416
2017-08-21T12:43:34.200Z,405
2017-08-21T12:44:35.833Z,393
2017-08-21T12:45:37.471Z,410
2017-08-21T12:46:39.096Z,405
2017-08-21T12:47:40.731Z,421
2017-08-21T12:48:42.366Z,421
2017-08-21T12:49:44.002Z,427
2017-08-21T12:50:45.631Z,427
2017-08-21T12:51:47.264Z,416
2017-08-21T12:52:48.903Z,410
2017-08-21T12:53:50.536Z,405
2017-08-21T12:54:52.164Z,388
2017-08-21T12:55:53.797Z,376
2017-08-21T12:56:55.434Z,360
2017-08-21T12:57:57.063Z,371
2017-08-21T12:58:58.696Z,326
2017-08-21T13:00:00.338Z,337
2017-08-21T13:01:01.965Z,326
2017-08-21T13:02:03.604Z,320
2017-08-21T13:03:05.235Z,315
2017-08-21T13:04:06.867Z,315
2017-08-21T13:05:08.504Z,303
2017-08-21T13:06:10.133Z,315
2017-08-21T13:07:11.766Z,286
2017-08-21T13:08:13.400Z,292
2017-08-21T13:09:15.030Z,292
2017-08-21T13:10:16.665Z,286
2017-08-21T13:11:18.298Z,281
2017-08-21T13:12:19.928Z,270
2017-08-21T13:13:21.561Z,264
2017-08-21T13:14:23.197Z,253
2017-08-21T13:15:24.837Z,247
2017-08-21T13:16:26.457Z,253
2017-08-21T13:17:28.087Z,258
2017-08-21T13:18:29.723Z,241
2017-08-21T13:19:31.355Z,236
2017-08-21T13:20:32.985Z,230
2017-08-21T13:21:34.624Z,230
2017-08-21T13:22:36.248Z,230
2017-08-21T13:23:37.877Z,225
2017-08-21T13:24:39.512Z,225
2017-08-21T13:25:41.143Z,219
2017-08-21T13:26:42.772Z,219
2017-08-21T13:27:44.401Z,225
2017-08-21T13:28:46.038Z,225
2017-08-21T13:29:47.670Z,219
2017-08-21T13:30:49.299Z,225
2017-08-21T13:31:50.928Z,236
2017-08-21T13:32:52.565Z,241
2017-08-21T13:33:54.190Z,241
2017-08-21T13:34:55.821Z,247
2017-08-21T13:35:57.456Z,253
2017-08-21T13:36:59.085Z,253
2017-08-21T13:38:00.712Z,253
2017-08-21T13:39:02.350Z,253
2017-08-21T13:40:03.980Z,264
2017-08-21T13:41:05.606Z,264
2017-08-21T13:42:07.238Z,264
2017-08-21T13:43:08.867Z,258
2017-08-21T13:44:10.502Z,253
2017-08-21T13:45:12.158Z,247
2017-08-21T13:46:13.829Z,258
2017-08-21T13:47:15.351Z,253
2017-08-21T13:48:16.984Z,258
2017-08-21T13:49:18.618Z,253
2017-08-21T13:50:20.244Z,241
2017-08-21T13:51:21.873Z,236
2017-08-21T13:52:23.505Z,225
2017-08-21T13:53:25.139Z,219
2017-08-21T13:54:26.764Z,213
2017-08-21T13:55:28.399Z,208
2017-08-21T13:56:30.033Z,202
2017-08-21T13:57:31.667Z,196
2017-08-21T13:58:33.298Z,196
2017-08-21T13:59:34.928Z,196
2017-08-21T14:00:36.553Z,196
2017-08-21T14:01:38.181Z,196
2017-08-21T14:02:39.818Z,196
2017-08-21T14:03:41.448Z,196
2017-08-21T14:04:43.074Z,196
2017-08-21T14:05:44.699Z,196
2017-08-21T14:06:46.337Z,196
2017-08-21T14:07:47.962Z,196
2017-08-21T14:08:49.590Z,191
2017-08-21T14:09:51.225Z,185
2017-08-21T14:10:52.851Z,180
2017-08-21T14:11:54.485Z,180
2017-08-21T14:12:56.112Z,174
2017-08-21T14:13:57.736Z,168
2017-08-21T14:14:59.367Z,163
2017-08-21T14:16:00.992Z,163
2017-08-21T14:17:02.620Z,157
2017-08-21T14:18:04.253Z,151
2017-08-21T14:19:05.885Z,151